sensor_id;sensor_type;location;lat;lon;timestamp;pressure;altitude;pressure_sealevel;temperature;humidity
84308;BME280;74486;52.070;5.128;2024-02-26T00:01:06;100065.81;;;5.14;100.00
84308;BME280;74486;52.070;5.128;2024-02-26T00:03:32;100062.06;;;5.09;100.00
84308;BME280;74486;52.070;5.128;2024-02-26T00:05:57;100059.59;;;5.10;100.00
84308;BME280;74486;52.070;5.128;2024-02-26T00:08:23;100068.25;;;5.11;100.00
84308;BME280;74486;52.070;5.128;2024-02-26T00:10:49;100068.16;;;5.09;100.00
84308;BME280;74486;52.070;5.128;2024-02-26T00:13:16;100071.53;;;5.08;100.00
84308;BME280;74486;52.070;5.128;2024-02-26T00:15:42;100071.63;;;5.10;100.00
84308;BME280;74486;52.070;5.128;2024-02-26T00:18:07;100076.66;;;5.07;100.00
84308;BME280;74486;52.070;5.128;2024-02-26T00:20:33;100072.38;;;5.07;100.00
84308;BME280;74486;52.070;5.128;2024-02-26T00:22:58;100076.28;;;5.15;100.00
84308;BME280;74486;52.070;5.128;2024-02-26T00:25:24;100075.28;;;5.13;100.00
84308;BME280;74486;52.070;5.128;2024-02-26T00:27:49;100073.34;;;5.09;99.96
84308;BME280;74486;52.070;5.128;2024-02-26T00:30:16;100077.16;;;5.16;100.00
84308;BME280;74486;52.070;5.128;2024-02-26T00:32:42;100071.28;;;5.04;100.00
84308;BME280;74486;52.070;5.128;2024-02-26T00:35:07;100078.09;;;5.02;100.00
84308;BME280;74486;52.070;5.128;2024-02-26T00:37:33;100075.31;;;4.99;100.00
84308;BME280;74486;52.070;5.128;2024-02-26T00:39:58;100083.53;;;5.06;100.00
84308;BME280;74486;52.070;5.128;2024-02-26T00:42:24;100083.28;;;5.02;100.00
84308;BME280;74486;52.070;5.128;2024-02-26T00:44:49;100075.75;;;5.06;100.00
84308;BME280;74486;52.070;5.128;2024-02-26T00:47:16;100080.94;;;5.06;100.00
84308;BME280;74486;52.070;5.128;2024-02-26T00:49:42;100079.88;;;5.03;100.00
84308;BME280;74486;52.070;5.128;2024-02-26T00:52:07;100084.59;;;5.10;100.00
84308;BME280;74486;52.070;5.128;2024-02-26T00:54:34;100076.72;;;5.08;100.00
84308;BME280;74486;52.070;5.128;2024-02-26T00:57:00;100081.19;;;5.11;100.00
84308;BME280;74486;52.070;5.128;2024-02-26T00:59:25;100075.03;;;5.09;100.00
84308;BME280;74486;52.070;5.128;2024-02-26T01:01:50;100076.03;;;5.11;100.00
84308;BME280;74486;52.070;5.128;2024-02-26T01:04:17;100076.19;;;5.14;100.00
84308;BME280;74486;52.070;5.128;2024-02-26T01:06:43;100077.16;;;5.16;100.00
84308;BME280;74486;52.070;5.128;2024-02-26T01:09:08;100081.34;;;5.14;100.00
84308;BME280;74486;52.070;5.128;2024-02-26T01:11:34;100073.69;;;5.15;100.00
84308;BME280;74486;52.070;5.128;2024-02-26T01:13:59;100078.88;;;5.15;99.98
84308;BME280;74486;52.070;5.128;2024-02-26T01:16:25;100078.97;;;5.17;100.00
84308;BME280;74486;52.070;5.128;2024-02-26T01:18:50;100072.09;;;5.17;100.00
84308;BME280;74486;52.070;5.128;2024-02-26T01:21:17;100069.56;;;5.19;100.00
84308;BME280;74486;52.070;5.128;2024-02-26T01:23:42;100077.81;;;5.12;100.00
84308;BME280;74486;52.070;5.128;2024-02-26T01:26:08;100070.53;;;5.21;100.00
84308;BME280;74486;52.070;5.128;2024-02-26T01:28:33;100066.41;;;5.24;100.00
84308;BME280;74486;52.070;5.128;2024-02-26T01:30:59;100066.06;;;5.18;99.86
84308;BME280;74486;52.070;5.128;2024-02-26T01:33:25;100069.00;;;5.24;99.66
84308;BME280;74486;52.070;5.128;2024-02-26T01:35:50;100075.47;;;5.16;99.98
84308;BME280;74486;52.070;5.128;2024-02-26T01:38:17;100073.84;;;5.18;100.00
84308;BME280;74486;52.070;5.128;2024-02-26T01:40:43;100069.91;;;5.25;98.89
84308;BME280;74486;52.070;5.128;2024-02-26T01:43:08;100069.25;;;5.29;99.07
84308;BME280;74486;52.070;5.128;2024-02-26T01:45:34;100063.72;;;5.23;99.09
84308;BME280;74486;52.070;5.128;2024-02-26T01:47:59;100071.59;;;5.24;99.02
84308;BME280;74486;52.070;5.128;2024-02-26T01:50:26;100062.94;;;5.24;99.44
84308;BME280;74486;52.070;5.128;2024-02-26T01:52:53;100069.44;;;5.32;98.77
84308;BME280;74486;52.070;5.128;2024-02-26T01:55:22;100076.78;;;5.24;98.54
84308;BME280;74486;52.070;5.128;2024-02-26T01:57:49;100076.38;;;5.33;98.33
84308;BME280;74486;52.070;5.128;2024-02-26T02:00:15;100079.06;;;5.35;98.18
84308;BME280;74486;52.070;5.128;2024-02-26T02:02:41;100073.53;;;5.29;97.55
84308;BME280;74486;52.070;5.128;2024-02-26T02:05:08;100086.19;;;5.22;99.08
84308;BME280;74486;52.070;5.128;2024-02-26T02:07:35;100084.56;;;5.24;98.68
84308;BME280;74486;52.070;5.128;2024-02-26T02:10:01;100089.31;;;5.17;99.16
84308;BME280;74486;52.070;5.128;2024-02-26T02:12:28;100098.16;;;5.20;98.86
84308;BME280;74486;52.070;5.128;2024-02-26T02:14:53;100095.56;;;5.20;98.69
84308;BME280;74486;52.070;5.128;2024-02-26T02:17:19;100099.84;;;5.20;100.00
84308;BME280;74486;52.070;5.128;2024-02-26T02:19:44;100104.88;;;5.17;99.21
84308;BME280;74486;52.070;5.128;2024-02-26T02:22:11;100104.06;;;5.18;98.35
84308;BME280;74486;52.070;5.128;2024-02-26T02:24:36;100098.06;;;5.19;98.84
84308;BME280;74486;52.070;5.128;2024-02-26T02:27:03;100093.22;;;5.25;99.26
84308;BME280;74486;52.070;5.128;2024-02-26T02:29:28;100106.47;;;5.15;99.38
84308;BME280;74486;52.070;5.128;2024-02-26T02:31:54;100102.28;;;5.17;99.81
84308;BME280;74486;52.070;5.128;2024-02-26T02:34:20;100107.91;;;5.10;99.29
84308;BME280;74486;52.070;5.128;2024-02-26T02:36:51;100105.66;;;5.16;99.29
84308;BME280;74486;52.070;5.128;2024-02-26T02:39:18;100112.03;;;5.06;99.23
84308;BME280;74486;52.070;5.128;2024-02-26T02:41:43;100114.72;;;5.08;99.17
84308;BME280;74486;52.070;5.128;2024-02-26T02:44:09;100115.56;;;5.08;99.35
84308;BME280;74486;52.070;5.128;2024-02-26T02:46:35;100118.25;;;5.10;99.12
84308;BME280;74486;52.070;5.128;2024-02-26T02:49:00;100128.72;;;5.11;99.35
84308;BME280;74486;52.070;5.128;2024-02-26T02:51:26;100134.69;;;5.10;98.82
84308;BME280;74486;52.070;5.128;2024-02-26T02:53:51;100128.72;;;5.11;99.38
84308;BME280;74486;52.070;5.128;2024-02-26T02:56:18;100123.53;;;5.11;99.78
84308;BME280;74486;52.070;5.128;2024-02-26T02:58:43;100133.69;;;5.08;99.04
84308;BME280;74486;52.070;5.128;2024-02-26T03:01:09;100136.38;;;5.10;99.00
84308;BME280;74486;52.070;5.128;2024-02-26T03:03:34;100144.78;;;5.06;99.93
84308;BME280;74486;52.070;5.128;2024-02-26T03:06:00;100147.28;;;5.04;98.79
84308;BME280;74486;52.070;5.128;2024-02-26T03:08:25;100151.41;;;5.01;98.87
84308;BME280;74486;52.070;5.128;2024-02-26T03:10:51;100158.00;;;5.10;99.32
84308;BME280;74486;52.070;5.128;2024-02-26T03:13:18;100168.00;;;5.04;98.68
84308;BME280;74486;52.070;5.128;2024-02-26T03:15:43;100167.09;;;5.04;99.82
84308;BME280;74486;52.070;5.128;2024-02-26T03:18:09;100162.41;;;4.97;100.00
84308;BME280;74486;52.070;5.128;2024-02-26T03:20:36;100169.97;;;5.08;100.00
84308;BME280;74486;52.070;5.128;2024-02-26T03:23:01;100161.34;;;5.08;99.46
84308;BME280;74486;52.070;5.128;2024-02-26T03:25:27;100168.00;;;5.04;99.36
84308;BME280;74486;52.070;5.128;2024-02-26T03:27:52;100166.69;;;5.11;99.65
84308;BME280;74486;52.070;5.128;2024-02-26T03:30:19;100173.56;;;5.10;100.00
84308;BME280;74486;52.070;5.128;2024-02-26T03:32:44;100180.25;;;5.07;99.60
84308;BME280;74486;52.070;5.128;2024-02-26T03:35:10;100182.84;;;5.07;98.73
84308;BME280;74486;52.070;5.128;2024-02-26T03:37:35;100184.38;;;5.03;99.54
84308;BME280;74486;52.070;5.128;2024-02-26T03:40:01;100185.59;;;4.95;99.04
84308;BME280;74486;52.070;5.128;2024-02-26T03:42:26;100184.28;;;5.02;99.91
84308;BME280;74486;52.070;5.128;2024-02-26T03:44:52;100185.25;;;5.04;99.43
84308;BME280;74486;52.070;5.128;2024-02-26T03:47:19;100185.81;;;4.98;99.93
84308;BME280;74486;52.070;5.128;2024-02-26T03:49:44;100178.09;;;5.00;99.68
84308;BME280;74486;52.070;5.128;2024-02-26T03:52:10;100179.91;;;5.01;99.34
84308;BME280;74486;52.070;5.128;2024-02-26T03:54:35;100187.66;;;5.01;98.33
84308;BME280;74486;52.070;5.128;2024-02-26T03:57:00;100187.41;;;4.96;99.34
84308;BME280;74486;52.070;5.128;2024-02-26T03:59:26;100189.00;;;4.94;99.42
84308;BME280;74486;52.070;5.128;2024-02-26T04:01:52;100183.13;;;4.97;99.40
84308;BME280;74486;52.070;5.128;2024-02-26T04:04:18;100183.91;;;4.96;99.16
84308;BME280;74486;52.070;5.128;2024-02-26T04:06:44;100193.66;;;5.00;99.11
84308;BME280;74486;52.070;5.128;2024-02-26T04:09:10;100190.78;;;4.95;98.85
84308;BME280;74486;52.070;5.128;2024-02-26T04:11:36;100192.41;;;4.93;100.00
84308;BME280;74486;52.070;5.128;2024-02-26T04:14:01;100196.75;;;4.94;100.00
84308;BME280;74486;52.070;5.128;2024-02-26T04:16:27;100197.84;;;4.98;99.65
84308;BME280;74486;52.070;5.128;2024-02-26T04:18:52;100191.59;;;4.94;99.50
84308;BME280;74486;52.070;5.128;2024-02-26T04:21:19;100201.88;;;4.93;99.50
84308;BME280;74486;52.070;5.128;2024-02-26T04:23:44;100198.38;;;4.92;99.57
84308;BME280;74486;52.070;5.128;2024-02-26T04:26:10;100196.44;;;4.88;99.51
84308;BME280;74486;52.070;5.128;2024-02-26T04:28:35;100202.03;;;4.96;99.55
84308;BME280;74486;52.070;5.128;2024-02-26T04:31:01;100206.84;;;4.90;99.49
84308;BME280;74486;52.070;5.128;2024-02-26T04:33:26;100209.53;;;4.91;99.44
84308;BME280;74486;52.070;5.128;2024-02-26T04:35:52;100210.34;;;4.90;99.90
84308;BME280;74486;52.070;5.128;2024-02-26T04:38:19;100210.34;;;4.90;99.16
84308;BME280;74486;52.070;5.128;2024-02-26T04:40:44;100209.72;;;4.94;99.14
84308;BME280;74486;52.070;5.128;2024-02-26T04:43:09;100204.38;;;4.91;100.00
84308;BME280;74486;52.070;5.128;2024-02-26T04:45:35;100211.06;;;4.88;99.61
84308;BME280;74486;52.070;5.128;2024-02-26T04:48:00;100212.03;;;4.90;99.59
84308;BME280;74486;52.070;5.128;2024-02-26T04:50:26;100214.34;;;4.85;100.00
84308;BME280;74486;52.070;5.128;2024-02-26T04:52:51;100205.88;;;4.88;100.00
84308;BME280;74486;52.070;5.128;2024-02-26T04:55:18;100212.75;;;4.87;100.00
84308;BME280;74486;52.070;5.128;2024-02-26T04:57:44;100220.53;;;4.87;100.00
84308;BME280;74486;52.070;5.128;2024-02-26T05:00:11;100224.63;;;4.84;99.88
84308;BME280;74486;52.070;5.128;2024-02-26T05:02:36;100224.91;;;4.88;100.00
84308;BME280;74486;52.070;5.128;2024-02-26T05:05:02;100231.06;;;4.90;100.00
84308;BME280;74486;52.070;5.128;2024-02-26T05:07:28;100221.16;;;4.83;100.00
84308;BME280;74486;52.070;5.128;2024-02-26T05:09:53;100228.81;;;4.81;100.00
84308;BME280;74486;52.070;5.128;2024-02-26T05:12:20;100237.59;;;4.84;100.00
84308;BME280;74486;52.070;5.128;2024-02-26T05:14:45;100238.38;;;4.82;100.00
84308;BME280;74486;52.070;5.128;2024-02-26T05:17:11;100232.03;;;4.77;100.00
84308;BME280;74486;52.070;5.128;2024-02-26T05:19:36;100236.31;;;4.77;100.00
84308;BME280;74486;52.070;5.128;2024-02-26T05:22:02;100249.25;;;4.77;100.00
84308;BME280;74486;52.070;5.128;2024-02-26T05:24:27;100240.59;;;4.76;100.00
84308;BME280;74486;52.070;5.128;2024-02-26T05:26:53;100239.91;;;4.79;100.00
84308;BME280;74486;52.070;5.128;2024-02-26T05:29:20;100235.41;;;4.76;100.00
84308;BME280;74486;52.070;5.128;2024-02-26T05:31:46;100242.28;;;4.76;100.00
84308;BME280;74486;52.070;5.128;2024-02-26T05:34:11;100246.28;;;4.71;100.00
84308;BME280;74486;52.070;5.128;2024-02-26T05:36:37;100248.09;;;4.72;100.00
84308;BME280;74486;52.070;5.128;2024-02-26T05:39:02;100242.91;;;4.72;100.00
84308;BME280;74486;52.070;5.128;2024-02-26T05:41:28;100251.69;;;4.74;100.00
84308;BME280;74486;52.070;5.128;2024-02-26T05:43:54;100255.13;;;4.74;100.00
84308;BME280;74486;52.070;5.128;2024-02-26T05:46:21;100258.28;;;4.69;100.00
84308;BME280;74486;52.070;5.128;2024-02-26T05:48:48;100258.63;;;4.75;100.00
84308;BME280;74486;52.070;5.128;2024-02-26T05:51:14;100258.34;;;4.70;100.00
84308;BME280;74486;52.070;5.128;2024-02-26T05:53:40;100263.44;;;4.69;100.00
84308;BME280;74486;52.070;5.128;2024-02-26T05:56:06;100257.09;;;4.64;100.00
84308;BME280;74486;52.070;5.128;2024-02-26T05:58:32;100271.28;;;4.70;100.00
84308;BME280;74486;52.070;5.128;2024-02-26T06:00:57;100266.03;;;4.69;100.00
84308;BME280;74486;52.070;5.128;2024-02-26T06:03:24;100282.16;;;4.65;100.00
84308;BME280;74486;52.070;5.128;2024-02-26T06:05:49;100289.50;;;4.72;100.00
84308;BME280;74486;52.070;5.128;2024-02-26T06:08:15;100282.06;;;4.63;100.00
84308;BME280;74486;52.070;5.128;2024-02-26T06:10:40;100271.00;;;4.66;100.00
84308;BME280;74486;52.070;5.128;2024-02-26T06:13:06;100277.97;;;4.67;100.00
84308;BME280;74486;52.070;5.128;2024-02-26T06:15:31;100284.06;;;4.67;100.00
84308;BME280;74486;52.070;5.128;2024-02-26T06:17:57;100290.81;;;4.65;100.00
84308;BME280;74486;52.070;5.128;2024-02-26T06:20:24;100294.22;;;4.64;100.00
84308;BME280;74486;52.070;5.128;2024-02-26T06:22:49;100297.16;;;4.70;100.00
84308;BME280;74486;52.070;5.128;2024-02-26T06:25:15;100302.44;;;4.72;100.00
84308;BME280;74486;52.070;5.128;2024-02-26T06:27:40;100299.06;;;4.73;100.00
84308;BME280;74486;52.070;5.128;2024-02-26T06:30:06;100302.56;;;4.73;100.00
84308;BME280;74486;52.070;5.128;2024-02-26T06:32:32;100307.53;;;4.70;100.00
84308;BME280;74486;52.070;5.128;2024-02-26T06:34:57;100316.28;;;4.72;100.00
84308;BME280;74486;52.070;5.128;2024-02-26T06:37:24;100315.38;;;4.72;100.00
84308;BME280;74486;52.070;5.128;2024-02-26T06:39:50;100320.47;;;4.70;100.00
84308;BME280;74486;52.070;5.128;2024-02-26T06:42:15;100316.13;;;4.69;100.00
84308;BME280;74486;52.070;5.128;2024-02-26T06:44:41;100320.56;;;4.72;100.00
84308;BME280;74486;52.070;5.128;2024-02-26T06:47:06;100332.78;;;4.74;100.00
84308;BME280;74486;52.070;5.128;2024-02-26T06:49:32;100340.38;;;4.71;100.00
84308;BME280;74486;52.070;5.128;2024-02-26T06:51:57;100347.88;;;4.67;100.00
84308;BME280;74486;52.070;5.128;2024-02-26T06:54:24;100340.38;;;4.71;100.00
84308;BME280;74486;52.070;5.128;2024-02-26T06:56:49;100342.88;;;4.70;100.00
84308;BME280;74486;52.070;5.128;2024-02-26T06:59:15;100348.88;;;4.69;100.00
84308;BME280;74486;52.070;5.128;2024-02-26T07:01:41;100349.84;;;4.71;100.00
84308;BME280;74486;52.070;5.128;2024-02-26T07:04:07;100352.25;;;4.68;100.00
84308;BME280;74486;52.070;5.128;2024-02-26T07:06:32;100345.56;;;4.71;100.00
84308;BME280;74486;52.070;5.128;2024-02-26T07:08:58;100353.59;;;4.76;100.00
84308;BME280;74486;52.070;5.128;2024-02-26T07:11:25;100358.59;;;4.73;100.00
84308;BME280;74486;52.070;5.128;2024-02-26T07:13:51;100371.53;;;4.73;100.00
84308;BME280;74486;52.070;5.128;2024-02-26T07:16:17;100372.34;;;4.72;100.00
84308;BME280;74486;52.070;5.128;2024-02-26T07:18:42;100371.44;;;4.71;100.00
84308;BME280;74486;52.070;5.128;2024-02-26T07:21:08;100375.94;;;4.74;100.00
84308;BME280;74486;52.070;5.128;2024-02-26T07:23:33;100374.81;;;4.70;100.00
84308;BME280;74486;52.070;5.128;2024-02-26T07:25:59;100379.22;;;4.71;100.00
84308;BME280;74486;52.070;5.128;2024-02-26T07:28:26;100385.09;;;4.69;100.00
84308;BME280;74486;52.070;5.128;2024-02-26T07:30:51;100379.09;;;4.70;100.00
84308;BME280;74486;52.070;5.128;2024-02-26T07:33:17;100388.25;;;4.78;100.00
84308;BME280;74486;52.070;5.128;2024-02-26T07:35:42;100382.81;;;4.73;100.00
84308;BME280;74486;52.070;5.128;2024-02-26T07:38:08;100386.97;;;4.71;100.00
84308;BME280;74486;52.070;5.128;2024-02-26T07:40:33;100397.44;;;4.73;100.00
84308;BME280;74486;52.070;5.128;2024-02-26T07:42:59;100393.84;;;4.71;100.00
84308;BME280;74486;52.070;5.128;2024-02-26T07:45:26;100397.50;;;4.74;100.00
84308;BME280;74486;52.070;5.128;2024-02-26T07:47:51;100390.91;;;4.79;100.00
84308;BME280;74486;52.070;5.128;2024-02-26T07:50:17;100393.44;;;4.78;100.00
84308;BME280;74486;52.070;5.128;2024-02-26T07:52:42;100405.78;;;4.82;100.00
84308;BME280;74486;52.070;5.128;2024-02-26T07:55:08;100417.03;;;4.82;100.00
84308;BME280;74486;52.070;5.128;2024-02-26T07:57:33;100415.22;;;4.81;100.00
84308;BME280;74486;52.070;5.128;2024-02-26T07:59:59;100423.38;;;4.88;100.00
84308;BME280;74486;52.070;5.128;2024-02-26T08:02:26;100426.59;;;4.84;100.00
84308;BME280;74486;52.070;5.128;2024-02-26T08:04:52;100437.03;;;4.85;100.00
84308;BME280;74486;52.070;5.128;2024-02-26T08:07:17;100437.53;;;4.93;100.00
84308;BME280;74486;52.070;5.128;2024-02-26T08:09:43;100448.50;;;4.89;100.00
84308;BME280;74486;52.070;5.128;2024-02-26T08:12:08;100452.25;;;4.94;100.00
84308;BME280;74486;52.070;5.128;2024-02-26T08:14:34;100452.34;;;4.95;100.00
84308;BME280;74486;52.070;5.128;2024-02-26T08:16:59;100465.00;;;4.91;100.00
84308;BME280;74486;52.070;5.128;2024-02-26T08:19:26;100451.25;;;4.92;100.00
84308;BME280;74486;52.070;5.128;2024-02-26T08:21:52;100462.00;;;4.98;100.00
84308;BME280;74486;52.070;5.128;2024-02-26T08:24:17;100458.31;;;4.94;100.00
84308;BME280;74486;52.070;5.128;2024-02-26T08:26:43;100449.84;;;4.97;100.00
84308;BME280;74486;52.070;5.128;2024-02-26T08:29:08;100467.97;;;4.97;100.00
84308;BME280;74486;52.070;5.128;2024-02-26T08:31:34;100476.84;;;5.00;100.00
84308;BME280;74486;52.070;5.128;2024-02-26T08:34:00;100473.72;;;5.06;100.00
84308;BME280;74486;52.070;5.128;2024-02-26T08:36:27;100483.19;;;5.05;100.00
84308;BME280;74486;52.070;5.128;2024-02-26T08:38:52;100476.31;;;5.06;100.00
84308;BME280;74486;52.070;5.128;2024-02-26T08:41:17;100479.03;;;5.07;100.00
84308;BME280;74486;52.070;5.128;2024-02-26T08:43:43;100485.00;;;5.06;100.00
84308;BME280;74486;52.070;5.128;2024-02-26T08:46:09;100489.66;;;5.12;100.00
84308;BME280;74486;52.070;5.128;2024-02-26T08:48:34;100493.22;;;5.14;100.00
84308;BME280;74486;52.070;5.128;2024-02-26T08:51:00;100494.22;;;5.16;100.00
84308;BME280;74486;52.070;5.128;2024-02-26T08:53:30;100496.94;;;5.17;100.00
84308;BME280;74486;52.070;5.128;2024-02-26T08:55:56;100508.09;;;5.16;100.00
84308;BME280;74486;52.070;5.128;2024-02-26T08:58:21;100498.34;;;5.12;100.00
84308;BME280;74486;52.070;5.128;2024-02-26T09:00:47;100506.28;;;5.15;100.00
84308;BME280;74486;52.070;5.128;2024-02-26T09:03:13;100506.47;;;5.18;100.00
84308;BME280;74486;52.070;5.128;2024-02-26T09:05:38;100512.88;;;5.10;100.00
84308;BME280;74486;52.070;5.128;2024-02-26T09:08:04;100515.75;;;5.15;100.00
84308;BME280;74486;52.070;5.128;2024-02-26T09:10:31;100517.06;;;5.08;100.00
84308;BME280;74486;52.070;5.128;2024-02-26T09:12:57;100518.34;;;5.15;100.00
84308;BME280;74486;52.070;5.128;2024-02-26T09:15:22;100526.63;;;5.09;100.00
84308;BME280;74486;52.070;5.128;2024-02-26T09:17:48;100520.53;;;5.09;100.00
84308;BME280;74486;52.070;5.128;2024-02-26T09:20:14;100533.31;;;5.06;100.00
84308;BME280;74486;52.070;5.128;2024-02-26T09:22:39;100532.53;;;5.07;100.00
84308;BME280;74486;52.070;5.128;2024-02-26T09:25:05;100535.72;;;5.03;100.00
84308;BME280;74486;52.070;5.128;2024-02-26T09:27:32;100540.59;;;4.98;100.00
84308;BME280;74486;52.070;5.128;2024-02-26T09:29:57;100542.38;;;4.99;100.00
84308;BME280;74486;52.070;5.128;2024-02-26T09:32:23;100550.25;;;5.01;100.00
84308;BME280;74486;52.070;5.128;2024-02-26T09:34:48;100550.06;;;4.98;100.00
84308;BME280;74486;52.070;5.128;2024-02-26T09:37:14;100543.78;;;4.94;100.00
84308;BME280;74486;52.070;5.128;2024-02-26T09:39:39;100545.69;;;4.97;100.00
84308;BME280;74486;52.070;5.128;2024-02-26T09:42:05;100556.81;;;4.96;100.00
84308;BME280;74486;52.070;5.128;2024-02-26T09:44:34;100560.59;;;5.01;100.00
84308;BME280;74486;52.070;5.128;2024-02-26T09:47:01;100553.75;;;5.01;100.00
84308;BME280;74486;52.070;5.128;2024-02-26T09:49:27;100566.50;;;4.98;100.00
84308;BME280;74486;52.070;5.128;2024-02-26T09:51:54;100563.00;;;4.98;100.00
84308;BME280;74486;52.070;5.128;2024-02-26T09:54:19;100570.19;;;5.02;100.00
84308;BME280;74486;52.070;5.128;2024-02-26T09:56:46;100571.25;;;5.05;100.00
84308;BME280;74486;52.070;5.128;2024-02-26T09:59:14;100557.00;;;4.99;100.00
84308;BME280;74486;52.070;5.128;2024-02-26T10:01:42;100577.72;;;4.99;100.00
84308;BME280;74486;52.070;5.128;2024-02-26T10:04:10;100586.31;;;4.98;100.00
84308;BME280;74486;52.070;5.128;2024-02-26T10:06:36;100592.69;;;5.03;100.00
84308;BME280;74486;52.070;5.128;2024-02-26T10:09:02;100592.97;;;4.94;100.00
84308;BME280;74486;52.070;5.128;2024-02-26T10:11:28;100603.13;;;5.04;100.00
84308;BME280;74486;52.070;5.128;2024-02-26T10:13:54;100606.44;;;5.02;100.00
84308;BME280;74486;52.070;5.128;2024-02-26T10:16:19;100604.03;;;5.05;100.00
84308;BME280;74486;52.070;5.128;2024-02-26T10:18:47;100608.31;;;5.04;100.00
84308;BME280;74486;52.070;5.128;2024-02-26T10:21:13;100608.44;;;5.06;100.00
84308;BME280;74486;52.070;5.128;2024-02-26T10:23:38;100610.22;;;5.07;100.00
84308;BME280;74486;52.070;5.128;2024-02-26T10:26:04;100613.41;;;5.03;100.00
84308;BME280;74486;52.070;5.128;2024-02-26T10:28:30;100611.00;;;5.06;100.00
84308;BME280;74486;52.070;5.128;2024-02-26T10:30:56;100624.06;;;5.07;100.00
84308;BME280;74486;52.070;5.128;2024-02-26T10:33:22;100626.84;;;5.10;100.00
84308;BME280;74486;52.070;5.128;2024-02-26T10:35:48;100633.63;;;5.08;100.00
84308;BME280;74486;52.070;5.128;2024-02-26T10:38:14;100623.88;;;5.17;100.00
84308;BME280;74486;52.070;5.128;2024-02-26T10:40:40;100639.19;;;5.14;100.00
84308;BME280;74486;52.070;5.128;2024-02-26T10:43:05;100640.31;;;5.18;100.00
84308;BME280;74486;52.070;5.128;2024-02-26T10:45:31;100649.97;;;5.20;100.00
84308;BME280;74486;52.070;5.128;2024-02-26T10:47:57;100641.28;;;5.20;100.00
84308;BME280;74486;52.070;5.128;2024-02-26T10:50:24;100659.25;;;5.17;100.00
84308;BME280;74486;52.070;5.128;2024-02-26T10:52:51;100661.03;;;5.18;100.00
84308;BME280;74486;52.070;5.128;2024-02-26T10:55:17;100665.63;;;5.22;100.00
84308;BME280;74486;52.070;5.128;2024-02-26T10:57:44;100669.41;;;5.27;100.00
84308;BME280;74486;52.070;5.128;2024-02-26T11:00:13;100671.47;;;5.33;100.00
84308;BME280;74486;52.070;5.128;2024-02-26T11:02:40;100680.16;;;5.33;100.00
84308;BME280;74486;52.070;5.128;2024-02-26T11:05:07;100683.03;;;5.38;100.00
84308;BME280;74486;52.070;5.128;2024-02-26T11:07:34;100687.03;;;5.33;100.00
84308;BME280;74486;52.070;5.128;2024-02-26T11:10:03;100686.63;;;5.40;100.00
84308;BME280;74486;52.070;5.128;2024-02-26T11:12:30;100691.31;;;5.45;100.00
84308;BME280;74486;52.070;5.128;2024-02-26T11:14:57;100690.84;;;5.51;100.00
84308;BME280;74486;52.070;5.128;2024-02-26T11:17:25;100701.69;;;5.45;100.00
84308;BME280;74486;52.070;5.128;2024-02-26T11:19:51;100699.69;;;5.54;100.00
84308;BME280;74486;52.070;5.128;2024-02-26T11:22:17;100704.28;;;5.58;100.00
84308;BME280;74486;52.070;5.128;2024-02-26T11:24:43;100708.47;;;5.56;100.00
84308;BME280;74486;52.070;5.128;2024-02-26T11:27:11;100706.06;;;5.59;100.00
84308;BME280;74486;52.070;5.128;2024-02-26T11:29:40;100710.25;;;5.71;100.00
84308;BME280;74486;52.070;5.128;2024-02-26T11:32:06;100707.25;;;5.64;100.00
84308;BME280;74486;52.070;5.128;2024-02-26T11:34:32;100709.34;;;5.57;100.00
84308;BME280;74486;52.070;5.128;2024-02-26T11:37:08;100709.66;;;5.61;100.00
84308;BME280;74486;52.070;5.128;2024-02-26T11:39:35;100714.84;;;5.61;100.00
84308;BME280;74486;52.070;5.128;2024-02-26T11:42:05;100711.16;;;5.71;100.00
84308;BME280;74486;52.070;5.128;2024-02-26T11:44:32;100712.75;;;5.69;100.00
84308;BME280;74486;52.070;5.128;2024-02-26T11:46:57;100715.63;;;5.74;100.00
84308;BME280;74486;52.070;5.128;2024-02-26T11:49:30;100713.16;;;5.88;100.00
84308;BME280;74486;52.070;5.128;2024-02-26T11:51:57;100730.06;;;5.83;100.00
84308;BME280;74486;52.070;5.128;2024-02-26T11:54:53;100734.06;;;5.78;100.00
84308;BME280;74486;52.070;5.128;2024-02-26T11:57:29;100726.47;;;5.81;100.00
84308;BME280;74486;52.070;5.128;2024-02-26T12:00:11;100732.28;;;5.77;100.00
84308;BME280;74486;52.070;5.128;2024-02-26T12:02:41;100738.06;;;5.73;100.00
84308;BME280;74486;52.070;5.128;2024-02-26T12:05:11;100737.66;;;5.67;100.00
84308;BME280;74486;52.070;5.128;2024-02-26T12:07:36;100736.06;;;5.69;100.00
84308;BME280;74486;52.070;5.128;2024-02-26T12:10:21;100747.47;;;5.71;100.00
84308;BME280;74486;52.070;5.128;2024-02-26T12:12:49;100750.56;;;5.65;100.00
84308;BME280;74486;52.070;5.128;2024-02-26T12:15:16;100753.50;;;5.72;100.00
84308;BME280;74486;52.070;5.128;2024-02-26T12:17:42;100762.31;;;5.74;100.00
84308;BME280;74486;52.070;5.128;2024-02-26T12:20:14;100761.91;;;5.81;100.00
84308;BME280;74486;52.070;5.128;2024-02-26T12:22:40;100757.88;;;5.86;100.00
84308;BME280;74486;52.070;5.128;2024-02-26T12:25:06;100767.22;;;5.95;100.00
84308;BME280;74486;52.070;5.128;2024-02-26T12:27:31;100775.56;;;5.91;100.00
84308;BME280;74486;52.070;5.128;2024-02-26T12:29:57;100774.28;;;5.85;100.00
84308;BME280;74486;52.070;5.128;2024-02-26T12:32:24;100771.09;;;5.89;100.00
84308;BME280;74486;52.070;5.128;2024-02-26T12:34:49;100774.34;;;5.86;100.00
84308;BME280;74486;52.070;5.128;2024-02-26T12:37:15;100773.16;;;5.81;100.00
84308;BME280;74486;52.070;5.128;2024-02-26T12:39:41;100778.16;;;5.91;100.00
84308;BME280;74486;52.070;5.128;2024-02-26T12:42:06;100777.28;;;5.91;100.00
84308;BME280;74486;52.070;5.128;2024-02-26T12:44:32;100780.25;;;5.84;100.00
84308;BME280;74486;52.070;5.128;2024-02-26T12:47:01;100781.22;;;5.86;100.00